Sun Valley, CA

04:45 PM PDT die 02o September, anno 2015 (GMT -0700)
Burbank-Glendale-Pasadena | | Change Station
CLOSE
Current Station
Airport
Location: Burbank,
Elevation: 774 ft
Nearby Weather Stations

Elev 774 ft 34.20 °N, 118.36 °W | Updated 52 minutes ago

Serena
Serena
79 °F
Feels Like 79 °F
N
5
Ventus Variabilis Ventus from Magis Auster quam Zephyrus

Hodie
High -- | Low -- °F
--% Chance of Precip.
Yesterday
High -- | Low -- °F
Precip. -- in
6:27 AM 7:18 PM
Waning Gibbous, 76% visible
Pressio 29.86 in
Visibilitas 10.0 milia passuum
Clouds Serena
Frigus in quo Ros apparet 58 °F
Umor 48%
Rainfall 0.00 in
Snow Depth Not available.
UV 5 out of 12
Pollen 7.50 out of 12
Air Quality Not available.
Flu Activity Not available.
METAR KBUR 022253Z AUTO 20004KT 10SM CLR 26/14 A2990 RMK AO2 SLP110 T02610144 TSNO
Pressio 29.86 in
Visibilitas 10.0 milia passuum
Clouds Serena
Frigus in quo Ros apparet 58 °F
Umor 48%
Rainfall 0.00 in
Snow Depth Not available.
UV 5 out of 12
Pollen 7.50 out of 12
Air Quality Not available.
Flu Activity Not available.
METAR KBUR 022253Z AUTO 20004KT 10SM CLR 26/14 A2990 RMK AO2 SLP110 T02610144 TSNO

10-Day Weather Forecast

×

Almanac

Astronomy

Sep. 02, 2015 Rise Set
Actual Time
Civil Twilight
Nautical Twilight
Astronomical Twilight
Moon
Length Of Visible Light
Length of Day
Tomorrow will be .
, % of the Moon is Illuminated

Today's Extremes

State Highs State Lows

Community

WunderPhotos

Upload Photos

1,851,841 photos uploaded!

WunderBlogs® & News

Nearby

Air Quality

  Air Quality AQ Index Pollutant
Not available.

Snow Depth

Station Depth Elevation

Earthquake Activity

City Distance Mag. Time & Date
Minimum magnitude displayed is 2.5.

Coastal Water Temperatures

Locus Calor

Stations

Nearby Weather Stations

Station Location Temp Frigus Venti Frigus in quo Ros apparet Umor Ventus Precip. Elev Renovata Type